Time;durP1;ratioP1;P1;durP2;ratioP2;P2;SDS_P1;SDS_P2;PMS_P1;PMS_P2;Temp;Humidity;BMP_temperature;BMP_pressure;BME280_temperature;BME280_humidity;BME280_pressure;Samples;Min_cycle;Max_cycle;Signal;HPM_P1;HPM_P2
2021/01/31 00:00:39;;;;;;;27.08;10.93;;;;;;;;;;8220994;28;20380;-76
2021/01/31 00:04:50;;;;;;;29.45;11.25;;;;;;;;;;8223128;28;20502;-74
2021/01/31 00:08:53;;;;;;;31.50;11.88;;;;;;;;;;8223676;28;20365;-74
2021/01/31 00:12:59;;;;;;;24.30;9.80;;;;;;;;;;8205788;28;20369;-74
2021/01/31 00:17:02;;;;;;;26.75;11.45;;;;;;;;;;8221022;28;20487;-74
2021/01/31 00:21:05;;;;;;;23.15;10.18;;;;;;;;;;8222276;28;20487;-74
2021/01/31 00:25:10;;;;;;;24.50;9.27;;;;;;;;;;8223641;28;20380;-73
2021/01/31 00:29:13;;;;;;;23.65;9.88;;;;;;;;;;8221671;28;20068;-74
2021/01/31 00:33:21;;;;;;;24.60;9.25;;;;;;;;;;8223592;28;20464;-74
2021/01/31 00:37:24;;;;;;;23.47;10.10;;;;;;;;;;8221802;28;20519;-74
2021/01/31 00:41:28;;;;;;;21.70;10.30;;;;;;;;;;8222336;28;20460;-74
2021/01/31 00:45:38;;;;;;;23.55;10.10;;;;;;;;;;8222120;28;20464;-75
2021/01/31 00:49:44;;;;;;;21.73;9.25;;;;;;;;;;8220284;28;20057;-75
2021/01/31 00:53:48;;;;;;;19.48;8.73;;;;;;;;;;8221402;28;20488;-75
2021/01/31 00:57:52;;;;;;;26.02;9.93;;;;;;;;;;8221651;28;20479;-74
2021/01/31 01:01:57;;;;;;;22.60;8.60;;;;;;;;;;8224446;28;20464;-74
2021/01/31 01:06:00;;;;;;;21.92;8.48;;;;;;;;;;8224670;28;20479;-74
2021/01/31 01:10:06;;;;;;;18.60;8.15;;;;;;;;;;8226005;28;20049;-74
2021/01/31 01:14:12;;;;;;;37.35;11.88;;;;;;;;;;8225595;28;20057;-74
2021/01/31 01:18:15;;;;;;;48.80;15.15;;;;;;;;;;8223977;28;20484;-74
2021/01/31 01:22:20;;;;;;;64.30;16.70;;;;;;;;;;8223738;28;20591;-74
2021/01/31 01:26:31;;;;;;;219.80;42.42;;;;;;;;;;8225421;28;20108;-74
2021/01/31 01:30:35;;;;;;;399.05;80.28;;;;;;;;;;8207335;28;20075;-74
2021/01/31 01:34:39;;;;;;;357.88;75.38;;;;;;;;;;8223227;28;20475;-74
2021/01/31 01:38:42;;;;;;;190.55;50.95;;;;;;;;;;8225051;28;20138;-74
2021/01/31 01:42:46;;;;;;;343.88;99.20;;;;;;;;;;8224918;28;20404;-74
2021/01/31 01:46:53;;;;;;;198.63;61.92;;;;;;;;;;8224607;28;20407;-74
2021/01/31 01:50:57;;;;;;;84.60;26.25;;;;;;;;;;8224102;28;20515;-74
2021/01/31 01:55:12;;;;;;;38.35;13.43;;;;;;;;;;8224559;28;20479;-74
2021/01/31 01:59:17;;;;;;;40.00;12.35;;;;;;;;;;8223186;28;20502;-73
2021/01/31 02:03:32;;;;;;;32.38;11.60;;;;;;;;;;8223044;28;20392;-74
2021/01/31 02:07:37;;;;;;;43.38;14.88;;;;;;;;;;8222368;28;20460;-73
2021/01/31 02:11:40;;;;;;;28.77;10.25;;;;;;;;;;8206868;28;20494;-75
2021/01/31 02:15:46;;;;;;;15.93;8.27;;;;;;;;;;8224057;28;20075;-73
2021/01/31 02:20:25;;;;;;;14.43;6.55;;;;;;;;;;8222907;28;20372;-73
2021/01/31 02:24:46;;;;;;;17.30;6.43;;;;;;;;;;8223713;28;20376;-73
2021/01/31 02:29:15;;;;;;;10.73;5.55;;;;;;;;;;8223853;28;20380;-73
2021/01/31 02:33:56;;;;;;;12.05;4.50;;;;;;;;;;8222826;28;20377;-73
2021/01/31 02:38:42;;;;;;;10.18;4.50;;;;;;;;;;8213815;28;20396;-73
2021/01/31 02:42:56;;;;;;;10.60;3.55;;;;;;;;;;8223913;28;20404;-72
2021/01/31 02:47:02;;;;;;;14.25;4.65;;;;;;;;;;8223188;28;20047;-73
2021/01/31 02:51:15;;;;;;;9.05;3.95;;;;;;;;;;8223827;28;20379;-73
2021/01/31 02:55:35;;;;;;;9.68;4.00;;;;;;;;;;8221636;28;20076;-73
2021/01/31 02:59:47;;;;;;;9.10;3.38;;;;;;;;;;8222247;28;20064;-73
2021/01/31 03:04:24;;;;;;;7.57;2.97;;;;;;;;;;8223427;28;20415;-73
2021/01/31 03:08:47;;;;;;;6.10;3.35;;;;;;;;;;8228609;28;20389;-74
2021/01/31 03:12:57;;;;;;;5.53;3.33;;;;;;;;;;8228092;28;20357;-73
2021/01/31 03:17:08;;;;;;;9.32;3.55;;;;;;;;;;8227442;28;20403;-73
2021/01/31 03:21:33;;;;;;;9.30;4.20;;;;;;;;;;8227573;28;20370;-72
2021/01/31 03:25:51;;;;;;;9.88;5.30;;;;;;;;;;8227553;28;20460;-72
2021/01/31 03:29:54;;;;;;;11.05;3.22;;;;;;;;;;8227155;28;20476;-72
2021/01/31 03:34:21;;;;;;;7.25;3.22;;;;;;;;;;8227449;28;20383;-73
2021/01/31 03:38:31;;;;;;;10.23;3.78;;;;;;;;;;8227048;28;20491;-72
2021/01/31 03:42:35;;;;;;;5.72;3.10;;;;;;;;;;8228433;28;20470;-72
2021/01/31 03:46:47;;;;;;;6.90;4.18;;;;;;;;;;8228417;28;20054;-72
2021/01/31 03:50:50;;;;;;;6.20;2.75;;;;;;;;;;8226297;28;20049;-72
2021/01/31 03:54:55;;;;;;;4.43;3.10;;;;;;;;;;8226783;28;20479;-72
2021/01/31 03:59:00;;;;;;;10.70;3.83;;;;;;;;;;8226568;28;20416;-72
2021/01/31 04:03:24;;;;;;;8.13;3.15;;;;;;;;;;8193855;28;20460;-72
2021/01/31 04:07:36;;;;;;;6.10;2.85;;;;;;;;;;8226678;28;20382;-71
2021/01/31 04:11:45;;;;;;;5.47;3.03;;;;;;;;;;8227247;28;20480;-73
2021/01/31 04:15:55;;;;;;;10.18;3.42;;;;;;;;;;8226895;28;20414;-71
2021/01/31 04:19:58;;;;;;;7.15;3.05;;;;;;;;;;8226238;28;20494;-72
2021/01/31 04:24:01;;;;;;;9.98;3.15;;;;;;;;;;8223017;28;20383;-71
2021/01/31 04:28:15;;;;;;;9.15;4.38;;;;;;;;;;8206603;28;20357;-71
2021/01/31 04:32:20;;;;;;;15.40;4.85;;;;;;;;;;8206475;28;20071;-71
2021/01/31 04:36:25;;;;;;;10.82;3.45;;;;;;;;;;8222937;28;20075;-71
2021/01/31 04:40:30;;;;;;;8.70;3.92;;;;;;;;;;8223029;28;20629;-72
2021/01/31 04:44:34;;;;;;;8.55;3.33;;;;;;;;;;8222443;28;20080;-71
2021/01/31 04:48:49;;;;;;;10.52;3.97;;;;;;;;;;8222012;28;20403;-72
2021/01/31 04:53:08;;;;;;;12.43;4.97;;;;;;;;;;8222776;28;20045;-72
2021/01/31 04:57:39;;;;;;;15.77;4.13;;;;;;;;;;8224752;28;20130;-71
2021/01/31 05:01:43;;;;;;;18.88;5.15;;;;;;;;;;8221558;28;20057;-72
2021/01/31 05:05:56;;;;;;;106.22;18.38;;;;;;;;;;8225981;28;20480;-71
2021/01/31 05:09:59;;;;;;;28.75;9.70;;;;;;;;;;8224338;28;20081;-72
2021/01/31 05:14:11;;;;;;;12.30;5.53;;;;;;;;;;8223368;28;20069;-71
2021/01/31 05:18:18;;;;;;;12.52;5.88;;;;;;;;;;8223935;28;20487;-71
2021/01/31 05:22:29;;;;;;;16.27;5.90;;;;;;;;;;8224042;28;20113;-71
2021/01/31 05:26:42;;;;;;;15.70;6.80;;;;;;;;;;8222670;28;20354;-71
2021/01/31 05:30:46;;;;;;;7.57;3.38;;;;;;;;;;8223032;28;20456;-71
2021/01/31 05:34:54;;;;;;;9.43;3.72;;;;;;;;;;8223433;28;20075;-71
2021/01/31 05:38:58;;;;;;;14.88;5.18;;;;;;;;;;8223858;28;20405;-71
2021/01/31 05:43:06;;;;;;;8.65;4.10;;;;;;;;;;8223692;28;20468;-71
2021/01/31 05:47:24;;;;;;;11.23;4.23;;;;;;;;;;8223366;28;20411;-71
2021/01/31 05:51:34;;;;;;;11.17;5.17;;;;;;;;;;8224957;28;20135;-72
2021/01/31 05:55:37;;;;;;;11.23;5.15;;;;;;;;;;8223215;28;20542;-71
2021/01/31 05:59:42;;;;;;;19.98;7.38;;;;;;;;;;8206571;28;20499;-71
2021/01/31 06:03:45;;;;;;;12.20;4.45;;;;;;;;;;8206821;28;20369;-71
2021/01/31 06:08:24;;;;;;;14.40;5.30;;;;;;;;;;8222731;28;20460;-71
2021/01/31 06:12:27;;;;;;;15.70;5.65;;;;;;;;;;8224196;28;20476;-71
2021/01/31 06:16:36;;;;;;;20.67;6.35;;;;;;;;;;8222155;28;20108;-71
2021/01/31 06:20:43;;;;;;;19.60;7.65;;;;;;;;;;8222634;28;20496;-71
2021/01/31 06:24:49;;;;;;;23.40;6.72;;;;;;;;;;8222686;28;20385;-71
2021/01/31 06:29:06;;;;;;;14.13;6.82;;;;;;;;;;8202375;28;20054;-72
2021/01/31 06:33:10;;;;;;;14.68;5.63;;;;;;;;;;8193300;28;20054;-70
2021/01/31 06:37:43;;;;;;;16.15;6.88;;;;;;;;;;8204114;28;20392;-72
2021/01/31 06:42:17;;;;;;;26.83;9.32;;;;;;;;;;8166002;28;20077;-71
2021/01/31 06:46:33;;;;;;;38.53;13.88;;;;;;;;;;8198034;28;20473;-71
2021/01/31 06:51:13;;;;;;;30.85;12.65;;;;;;;;;;8195165;28;20366;-71
2021/01/31 06:55:53;;;;;;;43.60;16.73;;;;;;;;;;8186632;28;20049;-71
2021/01/31 07:00:44;;;;;;;32.47;12.27;;;;;;;;;;8218267;28;20475;-74
2021/01/31 07:05:27;;;;;;;48.03;18.13;;;;;;;;;;8189401;28;20769;-71
2021/01/31 07:10:12;;;;;;;31.33;11.43;;;;;;;;;;8217636;28;20069;-72
2021/01/31 07:14:56;;;;;;;52.85;17.67;;;;;;;;;;8186456;28;20472;-72
2021/01/31 07:19:30;;;;;;;33.92;15.07;;;;;;;;;;8219412;28;20381;-72
2021/01/31 07:23:38;;;;;;;43.03;14.38;;;;;;;;;;8225425;28;20499;-72
2021/01/31 07:27:58;;;;;;;145.30;37.08;;;;;;;;;;8224317;28;20484;-72
2021/01/31 07:32:08;;;;;;;114.00;33.90;;;;;;;;;;8228051;28;20079;-72
2021/01/31 07:36:43;;;;;;;114.10;34.67;;;;;;;;;;8207517;28;20426;-72
2021/01/31 07:40:49;;;;;;;182.82;51.08;;;;;;;;;;8224661;28;20372;-73
2021/01/31 07:45:00;;;;;;;42.15;19.10;;;;;;;;;;8225803;28;20379;-73
2021/01/31 07:49:06;;;;;;;41.15;16.50;;;;;;;;;;8253527;28;20559;-72
2021/01/31 07:53:09;;;;;;;54.60;19.45;;;;;;;;;;8254607;28;20509;-73
2021/01/31 07:57:34;;;;;;;64.80;20.40;;;;;;;;;;8253776;28;20411;-73
2021/01/31 08:01:40;;;;;;;107.43;31.63;;;;;;;;;;8253826;28;20455;-71
2021/01/31 08:05:57;;;;;;;97.18;34.47;;;;;;;;;;8240234;28;20387;-71
2021/01/31 08:10:01;;;;;;;112.18;34.95;;;;;;;;;;8222036;28;20456;-72
2021/01/31 08:14:08;;;;;;;80.78;29.45;;;;;;;;;;8222141;28;20376;-73
2021/01/31 08:18:13;;;;;;;51.75;21.05;;;;;;;;;;8253801;28;20419;-72
2021/01/31 08:22:34;;;;;;;44.90;20.20;;;;;;;;;;8254947;28;20106;-71
2021/01/31 08:26:44;;;;;;;34.75;15.45;;;;;;;;;;8234431;28;20464;-72
2021/01/31 08:31:03;;;;;;;33.93;14.80;;;;;;;;;;8226231;28;20472;-73
2021/01/31 08:35:21;;;;;;;38.03;15.73;;;;;;;;;;8223565;28;20472;-73
2021/01/31 08:39:31;;;;;;;49.78;20.65;;;;;;;;;;8181336;28;20049;-72
2021/01/31 08:43:54;;;;;;;47.58;17.60;;;;;;;;;;8191605;28;20479;-74
2021/01/31 08:47:59;;;;;;;43.47;17.65;;;;;;;;;;8191090;28;20369;-71
2021/01/31 08:52:13;;;;;;;43.03;16.58;;;;;;;;;;8193571;28;20387;-72
2021/01/31 08:56:30;;;;;;;54.17;25.08;;;;;;;;;;8199445;28;20371;-73
2021/01/31 09:00:33;;;;;;;56.20;22.90;;;;;;;;;;8193964;28;20387;-73
2021/01/31 09:04:39;;;;;;;158.98;57.42;;;;;;;;;;8191889;28;20354;-72
2021/01/31 09:08:52;;;;;;;155.45;55.80;;;;;;;;;;8219690;28;20071;-72
2021/01/31 09:13:17;;;;;;;195.25;64.60;;;;;;;;;;8173786;28;20388;-73
2021/01/31 09:17:28;;;;;;;68.45;30.15;;;;;;;;;;8204182;28;20100;-71
2021/01/31 09:21:35;;;;;;;67.78;30.38;;;;;;;;;;8203302;28;20475;-74
2021/01/31 09:25:45;;;;;;;57.92;25.15;;;;;;;;;;8205217;28;20452;-73
2021/01/31 09:30:21;;;;;;;;;;;;;;;;;;;;;
2021/01/31 09:34:39;;;;;;;79.80;32.03;;;;;;;;;;8135361;28;20491;-73
2021/01/31 09:38:55;;;;;;;108.78;45.42;;;;;;;;;;8196848;28;20465;-75
2021/01/31 09:43:27;;;;;;;70.03;28.05;;;;;;;;;;8189497;28;20046;-75
2021/01/31 09:47:46;;;;;;;122.32;43.85;;;;;;;;;;8189113;28;20469;-76
2021/01/31 09:52:08;;;;;;;46.73;20.13;;;;;;;;;;8161408;28;20046;-74
2021/01/31 09:56:45;;;;;;;78.93;34.88;;;;;;;;;;8174311;28;20415;-75
2021/01/31 10:01:23;;;;;;;38.22;15.20;;;;;;;;;;8205178;28;20491;-75
2021/01/31 10:05:29;;;;;;;123.72;41.72;;;;;;;;;;8202717;28;20375;-75
2021/01/31 10:09:44;;;;;;;159.73;58.10;;;;;;;;;;8203404;28;20045;-77
2021/01/31 10:13:50;;;;;;;84.75;32.38;;;;;;;;;;8224315;28;20522;-76
2021/01/31 10:17:57;;;;;;;82.30;32.05;;;;;;;;;;8232218;28;20494;-76
2021/01/31 10:22:28;;;;;;;57.63;23.63;;;;;;;;;;8218997;28;20487;-74
2021/01/31 10:26:32;;;;;;;43.72;19.80;;;;;;;;;;8234979;28;20475;-77
2021/01/31 10:30:50;;;;;;;132.73;30.60;;;;;;;;;;8226419;28;20049;-79
2021/01/31 10:34:56;;;;;;;404.35;80.03;;;;;;;;;;8223248;28;20103;-77
2021/01/31 10:39:23;;;;;;;247.18;49.28;;;;;;;;;;8219935;28;20054;-77
2021/01/31 10:43:27;;;;;;;102.63;23.42;;;;;;;;;;8213145;28;20486;-76
2021/01/31 10:47:31;;;;;;;16.63;7.80;;;;;;;;;;8221622;28;20464;-77
2021/01/31 10:51:36;;;;;;;8.93;4.25;;;;;;;;;;8221198;28;20365;-77
2021/01/31 10:55:39;;;;;;;22.30;7.70;;;;;;;;;;8214948;28;20068;-76
2021/01/31 10:59:43;;;;;;;17.50;6.82;;;;;;;;;;8221808;28;20464;-77
2021/01/31 11:03:47;;;;;;;16.30;8.63;;;;;;;;;;8249599;28;20368;-76
2021/01/31 11:07:50;;;;;;;107.68;37.00;;;;;;;;;;8234389;28;20384;-76
2021/01/31 11:11:53;;;;;;;16.10;7.53;;;;;;;;;;8251205;28;20049;-77
2021/01/31 11:15:57;;;;;;;22.08;8.05;;;;;;;;;;8246012;28;20463;-77
2021/01/31 11:20:00;;;;;;;17.27;6.88;;;;;;;;;;8249819;28;20547;-77
2021/01/31 11:24:05;;;;;;;158.85;37.75;;;;;;;;;;8249284;28;20084;-77
2021/01/31 11:28:09;;;;;;;43.15;15.05;;;;;;;;;;8237080;28;20462;-76
2021/01/31 11:32:12;;;;;;;19.98;8.77;;;;;;;;;;8254335;28;20503;-77
2021/01/31 11:36:16;;;;;;;27.85;8.48;;;;;;;;;;8240160;28;20357;-77
2021/01/31 11:40:21;;;;;;;22.65;8.65;;;;;;;;;;8225796;28;20494;-77
2021/01/31 11:44:24;;;;;;;23.83;8.80;;;;;;;;;;8224859;28;20049;-77
2021/01/31 11:48:27;;;;;;;21.20;8.73;;;;;;;;;;8226488;28;20053;-77
2021/01/31 11:52:30;;;;;;;25.90;9.10;;;;;;;;;;8220191;28;20391;-77
2021/01/31 11:56:36;;;;;;;19.80;8.15;;;;;;;;;;8221805;28;20045;-76
2021/01/31 12:00:39;;;;;;;22.13;8.95;;;;;;;;;;8224537;28;20416;-76
2021/01/31 12:04:43;;;;;;;21.60;8.88;;;;;;;;;;8224812;28;20414;-77
2021/01/31 12:08:46;;;;;;;21.35;8.98;;;;;;;;;;8215297;28;20391;-77
2021/01/31 12:12:49;;;;;;;21.77;9.35;;;;;;;;;;8222715;28;20480;-76
2021/01/31 12:16:53;;;;;;;26.75;10.68;;;;;;;;;;8205818;28;20438;-76
2021/01/31 12:20:56;;;;;;;31.17;10.85;;;;;;;;;;8190028;28;20381;-76
2021/01/31 12:25:00;;;;;;;28.10;10.68;;;;;;;;;;8194888;28;20469;-76
2021/01/31 12:29:05;;;;;;;17.63;9.07;;;;;;;;;;8220824;28;20563;-76
2021/01/31 12:33:09;;;;;;;26.50;9.30;;;;;;;;;;8224154;28;20061;-76
2021/01/31 12:37:15;;;;;;;24.90;10.68;;;;;;;;;;8204310;28;20373;-76
2021/01/31 12:41:19;;;;;;;23.90;9.90;;;;;;;;;;8224244;28;20379;-76
2021/01/31 12:45:34;;;;;;;24.92;9.40;;;;;;;;;;8223116;28;20379;-75
2021/01/31 12:49:37;;;;;;;26.95;9.70;;;;;;;;;;8222795;28;20369;-76
2021/01/31 12:53:40;;;;;;;17.77;8.18;;;;;;;;;;8222422;28;20507;-75
2021/01/31 12:57:44;;;;;;;23.20;8.63;;;;;;;;;;8222055;28;20053;-75
2021/01/31 13:01:48;;;;;;;20.48;8.70;;;;;;;;;;8222213;28;20483;-76
2021/01/31 13:05:51;;;;;;;18.67;8.93;;;;;;;;;;8219526;28;20498;-75
2021/01/31 13:09:54;;;;;;;22.08;8.57;;;;;;;;;;8221902;28;20472;-75
2021/01/31 13:13:58;;;;;;;21.73;8.93;;;;;;;;;;8201592;28;20384;-75
2021/01/31 13:18:01;;;;;;;25.42;10.65;;;;;;;;;;8187760;28;20396;-76
2021/01/31 13:22:05;;;;;;;21.27;8.77;;;;;;;;;;8198543;28;20075;-75
2021/01/31 13:26:12;;;;;;;17.90;8.10;;;;;;;;;;8219728;28;20053;-75
2021/01/31 13:30:20;;;;;;;18.65;8.25;;;;;;;;;;8212437;28;20109;-74
2021/01/31 13:34:23;;;;;;;19.17;8.18;;;;;;;;;;8199638;28;20376;-74
2021/01/31 13:38:27;;;;;;;20.50;7.75;;;;;;;;;;8212965;28;20498;-74
2021/01/31 13:42:30;;;;;;;19.98;7.13;;;;;;;;;;8196415;28;20388;-74
2021/01/31 13:46:35;;;;;;;22.65;7.88;;;;;;;;;;8184062;28;20072;-74
2021/01/31 13:50:39;;;;;;;22.40;9.00;;;;;;;;;;8188263;28;20490;-74
2021/01/31 13:54:42;;;;;;;18.83;7.35;;;;;;;;;;8206079;28;20072;-74
2021/01/31 13:58:45;;;;;;;15.27;7.75;;;;;;;;;;8201577;28;20457;-74
2021/01/31 14:02:50;;;;;;;17.00;6.53;;;;;;;;;;8189191;28;20475;-73
2021/01/31 14:06:54;;;;;;;22.10;7.60;;;;;;;;;;8187584;28;20369;-73
2021/01/31 14:10:58;;;;;;;27.17;8.15;;;;;;;;;;8186314;28;20473;-73
2021/01/31 14:15:01;;;;;;;19.08;8.10;;;;;;;;;;8185941;28;20389;-74
2021/01/31 14:19:04;;;;;;;17.75;7.68;;;;;;;;;;8183205;28;20496;-73
2021/01/31 14:23:08;;;;;;;23.25;9.00;;;;;;;;;;8211461;28;20465;-74
2021/01/31 14:27:12;;;;;;;26.83;8.23;;;;;;;;;;8186190;28;20054;-73
2021/01/31 14:31:16;;;;;;;17.38;8.05;;;;;;;;;;8186328;28;20449;-74
2021/01/31 14:35:40;;;;;;;23.05;10.60;;;;;;;;;;8186324;28;20495;-74
2021/01/31 14:39:45;;;;;;;22.65;9.25;;;;;;;;;;8197975;28;20477;-73
2021/01/31 14:43:49;;;;;;;26.38;8.75;;;;;;;;;;8200230;28;20389;-74
2021/01/31 14:47:52;;;;;;;35.10;13.80;;;;;;;;;;8198712;28;20413;-74
2021/01/31 14:51:56;;;;;;;32.38;12.30;;;;;;;;;;8210485;28;20128;-74
2021/01/31 14:55:59;;;;;;;28.63;9.55;;;;;;;;;;8209767;28;20076;-75
2021/01/31 15:00:10;;;;;;;30.48;11.60;;;;;;;;;;8206072;28;20468;-74
2021/01/31 15:04:22;;;;;;;28.08;10.65;;;;;;;;;;8213682;28;20484;-75
2021/01/31 15:08:25;;;;;;;26.38;9.93;;;;;;;;;;8222658;28;20476;-74
2021/01/31 15:12:28;;;;;;;29.33;10.77;;;;;;;;;;8209284;28;20373;-74
2021/01/31 15:16:34;;;;;;;36.85;11.13;;;;;;;;;;8223115;28;20460;-74
2021/01/31 15:20:39;;;;;;;29.92;11.55;;;;;;;;;;8178134;28;20392;-76
2021/01/31 15:24:43;;;;;;;42.85;12.98;;;;;;;;;;8144022;28;20049;-74
2021/01/31 15:28:58;;;;;;;33.15;11.93;;;;;;;;;;8190655;28;20461;-74
2021/01/31 15:33:01;;;;;;;49.90;16.17;;;;;;;;;;8204143;28;20067;-74
2021/01/31 15:37:05;;;;;;;38.97;13.77;;;;;;;;;;8190567;28;20053;-75
2021/01/31 15:41:09;;;;;;;30.30;10.50;;;;;;;;;;8207274;28;20388;-74
2021/01/31 15:45:16;;;;;;;28.02;11.68;;;;;;;;;;8221554;28;20376;-75
2021/01/31 15:49:19;;;;;;;29.50;11.25;;;;;;;;;;8222786;28;20045;-74
2021/01/31 15:53:23;;;;;;;44.47;14.98;;;;;;;;;;8213237;28;20384;-74
2021/01/31 15:57:26;;;;;;;31.60;12.15;;;;;;;;;;8215264;28;20384;-75
2021/01/31 16:01:35;;;;;;;44.83;15.18;;;;;;;;;;8217293;28;20385;-74
2021/01/31 16:05:39;;;;;;;66.88;20.10;;;;;;;;;;8221902;28;20448;-75
2021/01/31 16:09:44;;;;;;;71.90;23.25;;;;;;;;;;8219115;28;20073;-74
2021/01/31 16:13:48;;;;;;;61.30;21.10;;;;;;;;;;8185447;28;20473;-72
2021/01/31 16:17:53;;;;;;;60.65;21.85;;;;;;;;;;8184148;28;20053;-73
2021/01/31 16:21:56;;;;;;;75.78;23.70;;;;;;;;;;8217309;28;20041;-72
2021/01/31 16:26:02;;;;;;;126.75;42.08;;;;;;;;;;8223303;28;20046;-74
2021/01/31 16:30:14;;;;;;;272.63;77.63;;;;;;;;;;8204837;28;20053;-72
2021/01/31 16:34:42;;;;;;;178.70;47.05;;;;;;;;;;8188925;28;20417;-73
2021/01/31 16:38:45;;;;;;;128.02;37.35;;;;;;;;;;8202759;28;20392;-72
2021/01/31 16:42:49;;;;;;;72.90;26.35;;;;;;;;;;8220264;28;20469;-73
2021/01/31 16:46:54;;;;;;;57.55;19.48;;;;;;;;;;8190385;28;20362;-73
2021/01/31 16:50:58;;;;;;;44.08;16.02;;;;;;;;;;8192525;28;20491;-73
2021/01/31 16:55:02;;;;;;;34.90;14.13;;;;;;;;;;8188136;28;20445;-72
2021/01/31 16:59:05;;;;;;;65.70;21.40;;;;;;;;;;8189146;28;20111;-71
2021/01/31 17:03:10;;;;;;;106.43;33.67;;;;;;;;;;8192625;28;20469;-72
2021/01/31 17:07:17;;;;;;;113.50;32.20;;;;;;;;;;8189922;28;20495;-73
2021/01/31 17:11:21;;;;;;;251.70;71.80;;;;;;;;;;8192146;28;20358;-72
2021/01/31 17:15:25;;;;;;;116.95;39.20;;;;;;;;;;8204934;28;20384;-71
2021/01/31 17:19:29;;;;;;;91.65;30.00;;;;;;;;;;8204462;28;20058;-72
2021/01/31 17:23:44;;;;;;;138.80;37.38;;;;;;;;;;8187827;28;20456;-71
2021/01/31 17:27:48;;;;;;;181.48;44.15;;;;;;;;;;8189387;28;20391;-71
2021/01/31 17:31:58;;;;;;;266.90;61.40;;;;;;;;;;8173527;28;20480;-71
2021/01/31 17:36:03;;;;;;;377.98;85.00;;;;;;;;;;8187387;28;20355;-72
2021/01/31 17:40:08;;;;;;;289.17;76.72;;;;;;;;;;8187309;28;20072;-72
2021/01/31 17:44:12;;;;;;;183.10;58.53;;;;;;;;;;8191144;28;20472;-71
2021/01/31 17:48:15;;;;;;;156.55;48.22;;;;;;;;;;8188813;28;20380;-71
2021/01/31 17:52:18;;;;;;;187.05;53.05;;;;;;;;;;8190315;28;20469;-71
2021/01/31 17:56:23;;;;;;;163.10;48.25;;;;;;;;;;8188821;28;20376;-72
2021/01/31 18:00:30;;;;;;;208.18;65.80;;;;;;;;;;8170213;28;20603;-72
2021/01/31 18:04:32;;;;;;;190.25;54.35;;;;;;;;;;8189459;28;20480;-72
2021/01/31 18:08:36;;;;;;;166.30;52.30;;;;;;;;;;8188184;28;20495;-70
2021/01/31 18:12:40;;;;;;;146.93;47.05;;;;;;;;;;8188418;28;20053;-71
2021/01/31 18:16:43;;;;;;;168.70;49.35;;;;;;;;;;8187788;28;20360;-71
2021/01/31 18:20:46;;;;;;;180.45;55.38;;;;;;;;;;8189768;28;20388;-71
2021/01/31 18:24:49;;;;;;;174.75;54.28;;;;;;;;;;8187819;28;20384;-71
2021/01/31 18:28:52;;;;;;;168.60;53.72;;;;;;;;;;8188341;28;20071;-72
2021/01/31 18:32:56;;;;;;;176.48;56.95;;;;;;;;;;8190270;28;20388;-70
2021/01/31 18:36:59;;;;;;;166.98;52.97;;;;;;;;;;8190998;28;20483;-72
2021/01/31 18:41:03;;;;;;;208.85;57.35;;;;;;;;;;8191322;28;20491;-71
2021/01/31 18:45:07;;;;;;;204.90;61.17;;;;;;;;;;8189351;28;20380;-71
2021/01/31 18:49:11;;;;;;;192.52;56.92;;;;;;;;;;8189540;28;20054;-71
2021/01/31 18:53:14;;;;;;;244.98;63.28;;;;;;;;;;8157049;28;20372;-70
2021/01/31 18:57:17;;;;;;;261.10;69.95;;;;;;;;;;8114829;28;20414;-71
2021/01/31 19:01:21;;;;;;;241.63;68.82;;;;;;;;;;8126526;28;20521;-71
2021/01/31 19:05:25;;;;;;;250.52;66.80;;;;;;;;;;8127173;28;20423;-71
2021/01/31 19:09:29;;;;;;;297.42;69.55;;;;;;;;;;8126148;28;20491;-71
2021/01/31 19:13:33;;;;;;;211.35;61.38;;;;;;;;;;8127024;28;20059;-72
2021/01/31 19:17:38;;;;;;;230.85;64.57;;;;;;;;;;8126896;28;20051;-71
2021/01/31 19:21:43;;;;;;;210.75;64.82;;;;;;;;;;8126936;28;20496;-71
2021/01/31 19:25:48;;;;;;;192.38;55.80;;;;;;;;;;8141475;28;20073;-70
2021/01/31 19:29:53;;;;;;;304.42;71.65;;;;;;;;;;8124822;28;20462;-71
2021/01/31 19:33:56;;;;;;;303.85;74.95;;;;;;;;;;8115112;28;20579;-71
2021/01/31 19:38:01;;;;;;;208.73;62.60;;;;;;;;;;8190487;28;20415;-70
2021/01/31 19:42:05;;;;;;;203.35;59.92;;;;;;;;;;8189150;28;20060;-70
2021/01/31 19:46:08;;;;;;;187.43;55.58;;;;;;;;;;8192554;28;20376;-71
2021/01/31 19:50:16;;;;;;;182.50;49.08;;;;;;;;;;8194840;28;20491;-70
2021/01/31 19:54:19;;;;;;;214.50;55.22;;;;;;;;;;8129960;28;20042;-70
2021/01/31 19:58:22;;;;;;;187.10;56.95;;;;;;;;;;8175202;28;20477;-71
2021/01/31 20:02:27;;;;;;;211.13;60.97;;;;;;;;;;8191656;28;20472;-70
2021/01/31 20:06:31;;;;;;;219.93;65.60;;;;;;;;;;8190883;28;20443;-70
2021/01/31 20:10:51;;;;;;;292.73;77.93;;;;;;;;;;8155036;28;20511;-70
2021/01/31 20:15:04;;;;;;;288.23;77.35;;;;;;;;;;8175619;28;20514;-71
2021/01/31 20:19:08;;;;;;;259.02;81.40;;;;;;;;;;8145195;28;21034;-72
2021/01/31 20:23:12;;;;;;;248.98;70.45;;;;;;;;;;8174644;28;20461;-71
2021/01/31 20:27:15;;;;;;;171.77;53.28;;;;;;;;;;8175597;28;20420;-71
2021/01/31 20:31:18;;;;;;;184.23;54.20;;;;;;;;;;8195100;28;20375;-70
2021/01/31 20:35:21;;;;;;;209.32;54.22;;;;;;;;;;8177697;28;20401;-71
2021/01/31 20:39:24;;;;;;;174.77;49.65;;;;;;;;;;8194595;28;20487;-70
2021/01/31 20:43:29;;;;;;;171.85;53.53;;;;;;;;;;8192122;28;20461;-70
2021/01/31 20:47:32;;;;;;;239.68;79.63;;;;;;;;;;8194810;28;20368;-71
2021/01/31 20:51:35;;;;;;;281.17;96.05;;;;;;;;;;8193850;28;20385;-71
2021/01/31 20:55:39;;;;;;;260.63;85.65;;;;;;;;;;8191806;28;20076;-70
2021/01/31 20:59:42;;;;;;;228.98;80.72;;;;;;;;;;8191536;28;20369;-70
2021/01/31 21:03:46;;;;;;;240.98;79.53;;;;;;;;;;8192025;28;20416;-71
2021/01/31 21:07:50;;;;;;;235.68;72.40;;;;;;;;;;8194211;28;20487;-72
2021/01/31 21:11:54;;;;;;;205.00;65.35;;;;;;;;;;8192267;28;20469;-71
2021/01/31 21:15:59;;;;;;;224.75;65.95;;;;;;;;;;8191360;28;20476;-70
2021/01/31 21:20:20;;;;;;;237.02;77.00;;;;;;;;;;8193482;28;20058;-70
2021/01/31 21:24:23;;;;;;;197.10;67.53;;;;;;;;;;8176198;28;20480;-70
2021/01/31 21:28:26;;;;;;;218.20;68.57;;;;;;;;;;8191888;28;20381;-70
2021/01/31 21:32:30;;;;;;;159.23;50.65;;;;;;;;;;8192635;28;20519;-69
2021/01/31 21:36:33;;;;;;;162.77;53.28;;;;;;;;;;8190378;28;20054;-69
2021/01/31 21:40:38;;;;;;;157.70;52.92;;;;;;;;;;8191083;28;20080;-70
2021/01/31 21:44:42;;;;;;;143.57;46.58;;;;;;;;;;8172373;28;20476;-69
2021/01/31 21:48:45;;;;;;;140.55;49.92;;;;;;;;;;8180255;28;20411;-69
2021/01/31 21:52:48;;;;;;;158.20;49.13;;;;;;;;;;8198496;28;20409;-70
2021/01/31 21:56:52;;;;;;;152.75;47.15;;;;;;;;;;8192606;28;20376;-71
2021/01/31 22:00:55;;;;;;;150.70;47.30;;;;;;;;;;8192490;28;20380;-70
2021/01/31 22:04:58;;;;;;;123.95;41.67;;;;;;;;;;8190291;28;20069;-70
2021/01/31 22:09:01;;;;;;;130.77;39.15;;;;;;;;;;8191098;28;20073;-70
2021/01/31 22:13:05;;;;;;;105.55;38.58;;;;;;;;;;8191995;28;20393;-70
2021/01/31 22:17:08;;;;;;;103.95;33.58;;;;;;;;;;8190349;28;20384;-69
2021/01/31 22:21:12;;;;;;;145.85;38.08;;;;;;;;;;8191976;28;20046;-69
2021/01/31 22:25:18;;;;;;;110.35;34.40;;;;;;;;;;8190368;28;20381;-70
2021/01/31 22:29:21;;;;;;;111.85;36.55;;;;;;;;;;8189996;28;20380;-70
2021/01/31 22:33:25;;;;;;;130.63;43.58;;;;;;;;;;8173981;28;20380;-69
2021/01/31 22:37:28;;;;;;;133.70;45.38;;;;;;;;;;8191214;28;20504;-71
2021/01/31 22:41:31;;;;;;;143.95;43.65;;;;;;;;;;8189418;28;20081;-70
2021/01/31 22:45:36;;;;;;;134.82;41.28;;;;;;;;;;8191307;28;20504;-70
2021/01/31 22:49:39;;;;;;;142.15;44.15;;;;;;;;;;8189706;28;20046;-70
2021/01/31 22:53:42;;;;;;;140.95;43.72;;;;;;;;;;8191017;28;20054;-71
2021/01/31 22:57:46;;;;;;;153.55;49.75;;;;;;;;;;8189965;28;20080;-70
2021/01/31 23:01:50;;;;;;;151.25;45.75;;;;;;;;;;8189874;28;20511;-70
2021/01/31 23:05:53;;;;;;;141.15;40.83;;;;;;;;;;8189307;28;20495;-69
2021/01/31 23:09:56;;;;;;;132.35;42.97;;;;;;;;;;8190635;28;20081;-70
2021/01/31 23:14:00;;;;;;;136.88;39.88;;;;;;;;;;8190761;28;20486;-70
2021/01/31 23:18:04;;;;;;;138.93;37.05;;;;;;;;;;8191119;28;20389;-70
2021/01/31 23:22:07;;;;;;;97.28;33.90;;;;;;;;;;8195041;28;20389;-69
2021/01/31 23:26:11;;;;;;;120.65;39.97;;;;;;;;;;8195081;28;20072;-70
2021/01/31 23:30:22;;;;;;;100.28;32.10;;;;;;;;;;8195273;28;20358;-70
2021/01/31 23:34:24;;;;;;;410.27;84.05;;;;;;;;;;8196239;28;20050;-70
2021/01/31 23:38:27;;;;;;;418.85;80.90;;;;;;;;;;8196053;28;20375;-70
2021/01/31 23:42:30;;;;;;;611.80;131.98;;;;;;;;;;8194851;28;20062;-69
2021/01/31 23:46:34;;;;;;;302.35;62.50;;;;;;;;;;8196031;28;20072;-70
2021/01/31 23:50:38;;;;;;;643.47;128.27;;;;;;;;;;8196370;28;20484;-69
2021/01/31 23:54:41;;;;;;;129.57;35.72;;;;;;;;;;8178665;28;20388;-70
2021/01/31 23:58:44;;;;;;;87.50;25.40;;;;;;;;;;8178252;28;20362;-70
